WetterOnline ( https://www.wetteronline.de )

Wetter aktuell Gladbeck

Aktuelles Wetter: Essen (161m)

6-stündlich | Neueste Meldungen
Ortszeit Temperatur Wetter
Di, 28.05. 2:00 10.8° C leichter Regen
Mo, 27.05. 20:00 13.6° C bewölkt
Mo, 27.05. 14:00 18.2° C bedeckt
Mo, 27.05. 8:00 14.5° C leicht bewölkt
Mo, 27.05. 2:00 13.3° C bedeckt
So, 26.05. 20:00 14.9° C starker Regen
So, 26.05. 14:00 21.4° C bedeckt
So, 26.05. 8:00 14.5° C wolkenlos
Ortszeit Temperatur Wetter
Di, 28.05. 2:10 10.8° C leichter Regen
Di, 28.05. 2:00 10.8° C leichter Regen
Di, 28.05. 1:50 10.8° C leichter Regen
Di, 28.05. 1:40 10.8° C leichter Regen
Di, 28.05. 1:30 10.9° C leichter Regen
Di, 28.05. 1:20 10.9° C leichter Regen
Di, 28.05. 1:00 11.4° C leichter Regen
Di, 28.05. 0:30 11.6° C leichter Regen
Di, 28.05. 0:00 11.6° C Sprühregen
Mo, 27.05. 23:30 11.7° C bedeckt
Ortszeit Relative Feuchte Sichtweite
Di, 28.05. 2:00 95% 15 km
Mo, 27.05. 20:00 96% 28 km
Mo, 27.05. 14:00 62% 40 km
Mo, 27.05. 8:00 90% 29 km
Mo, 27.05. 2:00 96% 30 km
So, 26.05. 20:00 98% 0.9 km
So, 26.05. 14:00 57% 55 km
So, 26.05. 8:00 85% 35 km
Ortszeit Relative Feuchte Sichtweite
Di, 28.05. 2:10 97% -
Di, 28.05. 2:00 95% 15 km
Di, 28.05. 1:50 95% -
Di, 28.05. 1:40 97% -
Di, 28.05. 1:30 97% 11 km
Di, 28.05. 1:20 97% -
Di, 28.05. 1:00 98% 4.6 km
Di, 28.05. 0:30 97% 4.4 km
Di, 28.05. 0:00 98% 4.3 km
Mo, 27.05. 23:30 97% 5.0 km
Ortszeit Niederschlagsmenge Niederschlagsart
Di, 28.05. 2:00 0.8 l/m2 in 6 Std. Regen
Mo, 27.05. 20:00 7 l/m2 in 12 Std. Regen
Mo, 27.05. 14:00 0.0 l/m2 in 6 Std. -
Mo, 27.05. 8:00 2 l/m2 in 12 Std. Regen
Mo, 27.05. 2:00 2 l/m2 in 6 Std. Regen
So, 26.05. 20:00 7 l/m2 in 12 Std. Regen
So, 26.05. 14:00 0.0 l/m2 in 6 Std. -
So, 26.05. 8:00 0.0 l/m2 in 12 Std. -
Ortszeit Niederschlagsmenge Niederschlagsart
Di, 28.05. 2:10 keine Meldung -
Di, 28.05. 2:00 0.3 l/m2 in 1 Std. Regen
Di, 28.05. 1:50 keine Meldung -
Di, 28.05. 1:40 keine Meldung -
Di, 28.05. 1:30 0.1 l/m2 in 30 Min -
Di, 28.05. 1:20 keine Meldung -
Di, 28.05. 1:00 0.2 l/m2 in 1 Std. Regen
Di, 28.05. 0:30 <0.05 l/m2 in 30 Min -
Di, 28.05. 0:00 <0.05 l/m2 in 1 Std. Regen
Mo, 27.05. 23:30 0.0 l/m2 in 30 Min -
Ortszeit Stärke Spitze Richtung
km/h Bft. km/h Grad Sektor
Di, 28.05. 2:00 11 2 22 220° SW
Mo, 27.05. 20:00 6 1 39 190° S
Mo, 27.05. 14:00 7 2 25 230° SW
Mo, 27.05. 8:00 6 1 13 200° S
Mo, 27.05. 2:00 4 1 25 180° S
So, 26.05. 20:00 15 3 44 280° W
So, 26.05. 14:00 17 3 35 150° SO
So, 26.05. 8:00 7 2 14 110° O
Ortszeit Stärke Spitze Richtung
km/h Bft. km/h Grad Sektor
Di, 28.05. 2:10 11 2 - 240° SW
Di, 28.05. 2:00 11 2 18 220° SW
Di, 28.05. 1:50 11 2 - 220° SW
Di, 28.05. 1:40 11 2 - 210° SW
Di, 28.05. 1:30 11 2 18 220° SW
Di, 28.05. 1:20 11 2 - 220° SW
Di, 28.05. 1:00 9 2 17 230° SW
Di, 28.05. 0:30 9 2 13 230° SW
Di, 28.05. 0:00 7 2 11 220° SW
Mo, 27.05. 23:30 7 2 11 220° SW
Ortszeit Untergrenze Bedeckung Gattung
total tief tief mittel hoch
Di, 28.05. 2:00 1800 m 7/8 7/8 - - -
Mo, 27.05. 20:00 1500 m 8/8 7/8 - - -
Mo, 27.05. 14:00 2700 m 8/8 8/8 - - -
Mo, 27.05. 8:00 960 m 4/8 3/8 - - -
Mo, 27.05. 2:00 3300 m 8/8 8/8 - - -
So, 26.05. 20:00 360 m 8/8 7/8 - - -
So, 26.05. 14:00 4200 m 8/8 8/8 - - -
So, 26.05. 8:00 - 0/8 0/8 - - -
Ortszeit Bedeckungsgrad in Achtel und Wolkenuntergrenze
Di, 28.05. 2:10 7
Di, 28.05. 2:00 7(1800m) 7(2100m)
Di, 28.05. 1:50 7(1800m) 7(2100m)
Di, 28.05. 1:40 7
Di, 28.05. 1:30 4(60m) 7(1800m) 8(2100m)
Di, 28.05. 1:20 4(60m) 7(1800m) 8(2100m)
Di, 28.05. 1:00 7(90m) 8(1800m)
Di, 28.05. 0:30 5(90m) 7(1800m)
Di, 28.05. 0:00 5(60m) 6(240m) 8(1500m)
Mo, 27.05. 23:30 3(90m) 7(2100m) 8(2700m)
Ortszeit Luftdruck NN (hPa) Tendenz (hPa in 3 Std.)
Di, 28.05. 2:00 1018 - 0,1
Mo, 27.05. 20:00 1017 + 0,8
Mo, 27.05. 14:00 1017 - 0,9
Mo, 27.05. 8:00 1018 + 1,0
Mo, 27.05. 2:00 1017 + 0,4
So, 26.05. 20:00 1015 + 1,0
So, 26.05. 14:00 1015 - 0,9
So, 26.05. 8:00 1017 - 0,2
Ortszeit Luftdruck NN (hPa) Tendenz (hPa in 3 Std.)
Di, 28.05. 2:10 1018 keine Meldung
Di, 28.05. 2:00 1018 - 0,1
Di, 28.05. 1:50 1018 keine Meldung
Di, 28.05. 1:40 1018 keine Meldung
Di, 28.05. 1:30 1018 + 0,2
Di, 28.05. 1:20 1018 keine Meldung
Di, 28.05. 1:00 1018 + 0,5
Di, 28.05. 0:30 1018 + 1,0
Di, 28.05. 0:00 1018 + 1,3
Mo, 27.05. 23:30 1018 + 1,1
Ortszeit Schneehöhe (cm)
Di, 28.05. 2:00 0
Mo, 27.05. 20:00 0
Mo, 27.05. 14:00 0
Mo, 27.05. 8:00 0
Mo, 27.05. 2:00 0
So, 26.05. 20:00 0
So, 26.05. 14:00 0
So, 26.05. 8:00 0
Ortszeit Schneehöhe (cm)
Di, 28.05. 2:10 -
Di, 28.05. 2:00 0
Di, 28.05. 1:50 0
Di, 28.05. 1:40 -
Di, 28.05. 1:30 0
Di, 28.05. 1:20 0
Di, 28.05. 1:00 0
Di, 28.05. 0:30 0
Di, 28.05. 0:00 0
Mo, 27.05. 23:30 0
Link zu dieser Seite / Seite empfehlen

Das Wetter in ...